Terminal Aerodrome Forecast
Issued by NWS Dallas/Fort Worth, TX

Home | Current Version | Previous Version | Text Only | Print | Product List | Glossary On
Versions: 1 2 3 4 5 6 7 8 9 10 11 12 13 14 15 16 17 18 19 20 21 22 23 24 25 26
000
FTUS44 KFWD 252339 AAA
TAFACT
TAF AMD
KACT 252339Z 2600/2624 10008KT 6SM -SHRA VCTS SCT070CB BKN150
     FM260200 12006KT P6SM FEW070 BKN150
     FM261000 16005KT P6SM SCT120
     FM261900 10008KT P6SM VCTS BKN060CB=

USA.gov is the U.S. government's official web portal to all federal, state and local government web resources and services.